Iaşi, România

10:51 AM EET on martie 03, 2015 (GMT +0200)
Iasi | Change Station
CLOSE
Current Station
Aeroport
Location: Iasi,
Elevation: 338 ft
Nearby Weather Stations

Elev 338 ft 47.16 °N, 27.63 °E | Updated 21 minutes ago

Mostly Cloudy
Cer în general noros
41 °F
Feels Like 34 °F
N
14
Vânt variabil Vânt from NNV

astăzi
High -- | Low -- °F
--% Chance of Precip.
Ieri
High -- | Low -- °F
Precip. -- inch
6:46 AM 5:56 PM
Lună în creştere, 95% visible
Presiunea 29.89 inch
Vizibilitatea 6.2 mile
Nori Few 700 ft
Nori risipiţi 1300 ft
Cer în general noros 3400 ft
Vânt rece 34 °F
Punctul de rouă 39 °F
Umiditatea 93%
Precipitaţii 0.00 inch
Adâncimea zăpezii Not available.
UV 2 out of 12
Pollen Not available.
Calitatea aerului Not available.
Flu Activity Not available.
METAR LRIA 030830Z 33012KT 9999 FEW007 SCT013 BKN034 05/04 Q1012 R14/29//95

More Conditions Fewer Conditions

Presiunea 29.89 inch
Vizibilitatea 6.2 mile
Nori Few 700 ft
Nori risipiţi 1300 ft
Cer în general noros 3400 ft
Vânt rece 34 °F
Punctul de rouă 39 °F
Umiditatea 93%
Precipitaţii 0.00 inch
Adâncimea zăpezii Not available.
UV 2 out of 12
Pollen Not available.
Calitatea aerului Not available.
Flu Activity Not available.
METAR LRIA 030830Z 33012KT 9999 FEW007 SCT013 BKN034 05/04 Q1012 R14/29//95

More Conditions Fewer Conditions

10-Day Weather Forecast

Almanac

Astronomie

Mar. 03, 2015 Răsărit Apus
Timpul Actual
Crepusculul Civil
Crepusculul nautic
Răsărit Astronomic
Luna
Durata zilei lumină
Lungimea zilei
Tomorrow will be .
, % of the Moon is Illuminated

Extremele de azi

Country Highs Country Lows

Community

WunderPhotos

Upload Photos

1,802,075 photos uploaded!

WunderBlogs® & News

Nearby

Calitatea aerului

  Calitatea aerului Index de calitate a aerului Poluat
Not available.

Adâncimea zapezii

Station Depth Elevation

Earthquake Activity

Oraş Distance Mag. Time & Date
Minimum magnitude displayed is 2.5.

Coastal Water Temperatures

Locul Temperatura

Nearby Weather Stations